Time;durP1;ratioP1;P1;durP2;ratioP2;P2;SDS_P1;SDS_P2;PMS_P1;PMS_P2;Temp;Humidity;BMP_temperature;BMP_pressure;BME280_temperature;BME280_humidity;BME280_pressure;Samples;Min_cycle;Max_cycle;Signal;HPM_P1;HPM_P2
2021/06/30 00:01:54;;;;;;;11.18;6.38;;;21.70;92.20;;;;;;5031393;28;20053;-56
2021/06/30 00:04:19;;;;;;;7.30;5.82;;;21.70;91.90;;;;;;5032971;28;20026;-54
2021/06/30 00:06:45;;;;;;;7.35;5.00;;;21.60;92.00;;;;;;5032699;28;20079;-53
2021/06/30 00:09:11;;;;;;;5.32;4.47;;;21.50;91.80;;;;;;5033258;28;20215;-50
2021/06/30 00:11:37;;;;;;;5.53;5.03;;;21.20;92.30;;;;;;5033037;28;20049;-55
2021/06/30 00:14:02;;;;;;;7.53;4.97;;;21.30;92.10;;;;;;5032982;28;20061;-55
2021/06/30 00:16:32;;;;;;;6.90;4.85;;;21.30;92.00;;;;;;5032981;28;20044;-52
2021/06/30 00:19:02;;;;;;;6.07;4.85;;;21.40;92.00;;;;;;5033304;28;20030;-53
2021/06/30 00:21:28;;;;;;;5.15;4.15;;;21.30;91.80;;;;;;5033378;28;20038;-59
2021/06/30 00:23:54;;;;;;;4.88;4.38;;;21.30;91.80;;;;;;5032829;28;20456;-59
2021/06/30 00:26:20;;;;;;;5.55;4.40;;;21.30;91.90;;;;;;5035375;28;20108;-58
2021/06/30 00:28:46;;;;;;;4.93;4.43;;;21.30;91.60;;;;;;5022752;28;20121;-59
2021/06/30 00:31:12;;;;;;;7.40;4.50;;;21.20;92.00;;;;;;4998918;28;20034;-57
2021/06/30 00:33:38;;;;;;;4.57;4.18;;;21.20;92.00;;;;;;5032505;28;20041;-58
2021/06/30 00:36:04;;;;;;;5.35;4.85;;;20.80;92.60;;;;;;5029628;28;20048;-60
2021/06/30 00:38:29;;;;;;;5.05;4.10;;;21.00;92.30;;;;;;5029378;28;20047;-61
2021/06/30 00:40:55;;;;;;;5.05;4.32;;;21.00;92.20;;;;;;5032589;28;20044;-60
2021/06/30 00:43:21;;;;;;;5.00;4.40;;;21.00;92.00;;;;;;5027501;28;20033;-59
2021/06/30 00:45:49;;;;;;;6.50;4.28;;;21.00;92.10;;;;;;5032237;28;20125;-56
2021/06/30 00:48:15;;;;;;;6.70;4.45;;;20.70;92.50;;;;;;5032153;28;20099;-57
2021/06/30 00:50:41;;;;;;;5.50;4.47;;;20.40;93.00;;;;;;5030628;28;20045;-58
2021/06/30 00:53:07;;;;;;;5.32;4.22;;;20.20;93.50;;;;;;5032586;28;20037;-53
2021/06/30 00:55:33;;;;;;;4.20;3.80;;;20.40;93.20;;;;;;5032294;28;20374;-53
2021/06/30 00:57:59;;;;;;;5.68;4.43;;;20.50;92.80;;;;;;5032201;28;20091;-52
2021/06/30 01:00:25;;;;;;;4.40;3.85;;;20.50;92.80;;;;;;5032450;28;20095;-54
2021/06/30 01:02:51;;;;;;;4.65;4.25;;;20.40;93.10;;;;;;5032741;28;20120;-54
2021/06/30 01:05:17;;;;;;;4.60;4.20;;;20.40;93.00;;;;;;5032629;28;20081;-57
2021/06/30 01:07:44;;;;;;;6.72;4.00;;;20.40;92.80;;;;;;5032380;28;20388;-57
2021/06/30 01:10:10;;;;;;;6.05;4.38;;;20.40;92.70;;;;;;5027858;28;20037;-55
2021/06/30 01:12:36;;;;;;;4.70;4.20;;;20.50;92.50;;;;;;5032734;28;20013;-57
2021/06/30 01:15:09;;;;;;;4.70;3.70;;;20.60;92.20;;;;;;5032521;28;20025;-59
2021/06/30 01:17:35;;;;;;;4.20;3.80;;;20.70;91.90;;;;;;5031882;28;20030;-51
2021/06/30 01:20:02;;;;;;;4.18;3.78;;;20.70;91.90;;;;;;5010190;28;20030;-58
2021/06/30 01:22:28;;;;;;;4.43;4.03;;;20.80;91.80;;;;;;5014853;28;20124;-55
2021/06/30 01:24:54;;;;;;;6.75;4.00;;;20.50;92.30;;;;;;5032305;28;20101;-58
2021/06/30 01:27:21;;;;;;;4.97;3.67;;;20.50;92.30;;;;;;5040028;28;20091;-57
2021/06/30 01:29:47;;;;;;;6.93;4.28;;;20.30;92.60;;;;;;5032184;28;20036;-60
2021/06/30 01:32:13;;;;;;;3.95;3.65;;;20.30;92.60;;;;;;5031962;28;20029;-56
2021/06/30 01:34:40;;;;;;;4.22;3.80;;;20.10;93.00;;;;;;5031870;28;20437;-53
2021/06/30 01:37:06;;;;;;;5.28;3.92;;;20.10;93.00;;;;;;5031607;28;20102;-57
2021/06/30 01:39:32;;;;;;;4.35;3.95;;;19.90;93.60;;;;;;5003801;28;20164;-56
2021/06/30 01:41:58;;;;;;;5.30;3.95;;;20.00;93.40;;;;;;5032057;28;20497;-55
2021/06/30 01:44:24;;;;;;;6.10;4.10;;;20.20;93.10;;;;;;5031668;28;20037;-54
2021/06/30 01:46:49;;;;;;;6.05;4.20;;;20.30;92.80;;;;;;5013601;28;20030;-56
2021/06/30 01:49:15;;;;;;;5.65;3.90;;;20.40;92.70;;;;;;5032133;28;20108;-57
2021/06/30 01:51:41;;;;;;;4.53;3.92;;;20.40;92.80;;;;;;5031480;28;20018;-56
2021/06/30 01:54:11;;;;;;;4.43;4.03;;;20.30;93.00;;;;;;5031847;28;20040;-58
2021/06/30 01:56:37;;;;;;;4.18;3.78;;;20.40;92.70;;;;;;5031125;28;20029;-53
2021/06/30 01:59:06;;;;;;;4.22;3.83;;;20.50;92.70;;;;;;5031077;28;20652;-56
2021/06/30 02:01:32;;;;;;;4.45;4.03;;;20.60;92.50;;;;;;5031461;28;20112;-59
2021/06/30 02:03:58;;;;;;;4.47;3.90;;;20.70;92.20;;;;;;5031448;28;20033;-55
2021/06/30 02:06:26;;;;;;;4.68;4.20;;;20.70;92.10;;;;;;5031099;28;20446;-55
2021/06/30 02:08:56;;;;;;;4.80;4.00;;;20.60;92.30;;;;;;5027306;28;20027;-57
2021/06/30 02:11:21;;;;;;;4.53;4.00;;;20.60;92.60;;;;;;5031799;28;20087;-56
2021/06/30 02:13:47;;;;;;;6.28;4.28;;;20.50;92.60;;;;;;5031144;28;20489;-55
2021/06/30 02:16:13;;;;;;;8.43;4.80;;;20.40;92.70;;;;;;5031139;28;20034;-52
2021/06/30 02:18:38;;;;;;;6.72;4.47;;;20.20;93.30;;;;;;5031144;28;20037;-55
2021/06/30 02:21:04;;;;;;;5.47;4.97;;;19.90;93.70;;;;;;5012767;28;20077;-57
2021/06/30 02:23:30;;;;;;;5.35;4.80;;;19.80;94.10;;;;;;5030681;28;20037;-55
2021/06/30 02:25:55;;;;;;;7.35;5.22;;;19.60;94.30;;;;;;5018317;28;20503;-58
2021/06/30 02:28:21;;;;;;;7.47;4.85;;;19.80;94.00;;;;;;5032094;28;20052;-59
2021/06/30 02:30:46;;;;;;;6.40;5.07;;;19.90;94.00;;;;;;5031883;28;20104;-57
2021/06/30 02:33:12;;;;;;;6.00;4.75;;;19.80;94.10;;;;;;5030824;28;20065;-54
2021/06/30 02:35:38;;;;;;;5.93;4.72;;;19.80;94.10;;;;;;5031412;28;20400;-57
2021/06/30 02:38:04;;;;;;;5.40;4.90;;;19.80;94.20;;;;;;5022524;28;20176;-54
2021/06/30 02:40:29;;;;;;;6.80;5.07;;;19.80;94.30;;;;;;5027722;28;20116;-56
2021/06/30 02:42:56;;;;;;;7.75;5.03;;;19.90;94.10;;;;;;5031795;28;20567;-52
2021/06/30 02:45:21;;;;;;;5.20;4.60;;;19.70;94.40;;;;;;5031797;28;20052;-52
2021/06/30 02:47:48;;;;;;;4.72;4.32;;;19.80;94.60;;;;;;5031732;28;20049;-57
2021/06/30 02:50:19;;;;;;;7.18;4.78;;;19.90;94.10;;;;;;5031911;28;20052;-56
2021/06/30 02:52:45;;;;;;;5.80;4.63;;;19.90;94.20;;;;;;5031280;28;20029;-57
2021/06/30 02:55:15;;;;;;;4.97;4.25;;;19.90;94.20;;;;;;5031469;28;20113;-56
2021/06/30 02:57:42;;;;;;;5.28;4.35;;;19.80;94.20;;;;;;5031475;28;20030;-54
2021/06/30 03:00:12;;;;;;;5.65;4.72;;;19.60;94.70;;;;;;5031974;28;20022;-56
2021/06/30 03:02:38;;;;;;;8.13;4.93;;;19.70;94.60;;;;;;5031878;28;20022;-54
2021/06/30 03:05:05;;;;;;;5.47;4.88;;;19.70;94.70;;;;;;5031128;28;20108;-56
2021/06/30 03:07:30;;;;;;;5.15;4.50;;;19.60;94.80;;;;;;5017546;28;20040;-57
2021/06/30 03:09:56;;;;;;;5.40;4.65;;;19.60;94.70;;;;;;5032009;28;20109;-56
2021/06/30 03:12:21;;;;;;;4.88;4.38;;;19.50;94.90;;;;;;5035856;28;20497;-54
2021/06/30 03:14:47;;;;;;;5.97;4.57;;;19.60;94.90;;;;;;5035674;28;20428;-58
2021/06/30 03:17:13;;;;;;;6.18;4.72;;;19.80;94.60;;;;;;5035915;28;20037;-59
2021/06/30 03:19:38;;;;;;;4.75;4.28;;;19.70;94.60;;;;;;5034969;28;20492;-56
2021/06/30 03:22:04;;;;;;;7.50;5.30;;;19.80;94.50;;;;;;5035248;28;20238;-54
2021/06/30 03:24:30;;;;;;;5.15;4.55;;;20.00;94.30;;;;;;5017303;28;20072;-54
2021/06/30 03:26:55;;;;;;;6.28;4.80;;;20.00;94.00;;;;;;5034594;28;20044;-57
2021/06/30 03:29:21;;;;;;;6.38;4.38;;;19.90;94.10;;;;;;5035119;28;20061;-58
2021/06/30 03:31:46;;;;;;;6.47;4.35;;;20.00;94.00;;;;;;5035410;28;20048;-54
2021/06/30 03:34:12;;;;;;;5.38;4.45;;;20.10;94.00;;;;;;5018112;28;20033;-55
2021/06/30 03:36:38;;;;;;;4.85;4.40;;;20.00;93.90;;;;;;5038154;28;20492;-54
2021/06/30 03:39:04;;;;;;;5.85;4.85;;;20.10;93.80;;;;;;5025693;28;20025;-58
2021/06/30 03:41:29;;;;;;;5.45;4.55;;;20.10;93.80;;;;;;5016775;28;20096;-58
2021/06/30 03:43:55;;;;;;;5.10;4.60;;;20.10;93.80;;;;;;5034721;28;20068;-56
2021/06/30 03:46:21;;;;;;;7.97;5.10;;;20.10;93.80;;;;;;5034508;28;20033;-58
2021/06/30 03:48:46;;;;;;;6.45;4.50;;;20.10;93.80;;;;;;5035273;28;20037;-56
2021/06/30 03:51:12;;;;;;;6.43;4.68;;;20.10;93.80;;;;;;5035495;28;20463;-58
2021/06/30 03:53:37;;;;;;;7.65;5.13;;;20.00;94.00;;;;;;5034205;28;20476;-56
2021/06/30 03:56:04;;;;;;;7.05;4.93;;;20.00;94.10;;;;;;5034885;28;20044;-56
2021/06/30 03:58:30;;;;;;;7.50;5.90;;;19.80;94.40;;;;;;5034159;28;20056;-54
2021/06/30 04:00:57;;;;;;;6.85;5.32;;;19.80;94.40;;;;;;5034726;28;20504;-58
2021/06/30 04:03:23;;;;;;;7.57;5.40;;;19.70;94.70;;;;;;5034996;28;20443;-59
2021/06/30 04:05:48;;;;;;;5.88;5.28;;;19.60;94.80;;;;;;5034567;28;20118;-56
2021/06/30 04:08:14;;;;;;;7.07;5.50;;;19.70;94.60;;;;;;5034264;28;20076;-57
2021/06/30 04:10:40;;;;;;;7.35;4.78;;;19.60;94.70;;;;;;5034619;28;20068;-55
2021/06/30 04:13:06;;;;;;;5.28;4.63;;;19.60;94.70;;;;;;5034602;28;20042;-57
2021/06/30 04:15:31;;;;;;;6.85;5.13;;;19.50;94.80;;;;;;5034414;28;20457;-56
2021/06/30 04:17:59;;;;;;;5.45;4.88;;;19.40;94.90;;;;;;5034266;28;20044;-56
2021/06/30 04:20:26;;;;;;;6.70;4.70;;;19.40;95.10;;;;;;5034798;28;20504;-53
2021/06/30 04:22:51;;;;;;;6.22;5.10;;;19.40;95.30;;;;;;5033066;28;20037;-58
2021/06/30 04:25:17;;;;;;;6.93;5.30;;;19.40;95.30;;;;;;5034739;28;20508;-57
2021/06/30 04:27:42;;;;;;;7.70;4.90;;;19.30;95.70;;;;;;5033903;28;20029;-57
2021/06/30 04:30:10;;;;;;;7.47;5.60;;;19.20;96.10;;;;;;5017104;28;20022;-65
2021/06/30 04:32:37;;;;;;;9.20;5.32;;;19.30;96.20;;;;;;5016912;28;20530;-67
2021/06/30 04:35:07;;;;;;;11.10;5.95;;;19.20;96.60;;;;;;5033711;28;20109;-68
2021/06/30 04:37:32;;;;;;;13.30;5.75;;;19.30;96.70;;;;;;5031536;28;20032;-66
2021/06/30 04:39:59;;;;;;;6.63;5.57;;;19.20;96.80;;;;;;5034747;28;20029;-66
2021/06/30 04:42:25;;;;;;;9.30;5.75;;;19.10;97.10;;;;;;5034195;28;20034;-66
2021/06/30 04:44:50;;;;;;;11.45;6.63;;;18.90;97.60;;;;;;5033591;28;20030;-67
2021/06/30 04:47:16;;;;;;;11.38;5.97;;;19.00;97.60;;;;;;5016139;28;20163;-65
2021/06/30 04:49:41;;;;;;;9.65;5.78;;;19.00;97.70;;;;;;5033957;28;20053;-65
2021/06/30 04:52:07;;;;;;;9.02;6.25;;;19.00;97.60;;;;;;5016571;28;20033;-65
2021/06/30 04:54:33;;;;;;;7.85;6.10;;;19.00;97.70;;;;;;5034006;28;20100;-64
2021/06/30 04:56:59;;;;;;;8.00;5.32;;;19.00;97.50;;;;;;5015472;28;20024;-66
2021/06/30 04:59:24;;;;;;;7.82;5.68;;;19.10;97.60;;;;;;5033475;28;20045;-64
2021/06/30 05:01:51;;;;;;;10.10;5.70;;;19.10;97.80;;;;;;5033344;28;20121;-62
2021/06/30 05:04:18;;;;;;;10.10;5.97;;;19.10;97.80;;;;;;5033265;28;20033;-63
2021/06/30 05:06:45;;;;;;;8.60;5.70;;;19.10;97.60;;;;;;5033096;28;20025;-64
2021/06/30 05:09:10;;;;;;;6.40;5.65;;;19.20;97.40;;;;;;5034437;28;20357;-67
2021/06/30 05:11:36;;;;;;;16.13;7.22;;;19.00;97.60;;;;;;5034164;28;20025;-66
2021/06/30 05:14:02;;;;;;;9.30;7.35;;;18.80;98.10;;;;;;5034050;28;20113;-65
2021/06/30 05:16:27;;;;;;;13.63;7.63;;;18.70;98.50;;;;;;5033273;28;20484;-67
2021/06/30 05:18:53;;;;;;;14.38;8.43;;;18.60;98.90;;;;;;5033349;28;20129;-66
2021/06/30 05:21:21;;;;;;;11.15;7.57;;;18.50;99.20;;;;;;5033042;28;20480;-67
2021/06/30 05:23:47;;;;;;;8.73;6.70;;;18.60;98.90;;;;;;5033048;28;20079;-67
2021/06/30 05:26:13;;;;;;;12.98;7.78;;;18.60;98.80;;;;;;5033511;28;20033;-67
2021/06/30 05:28:38;;;;;;;10.55;7.47;;;18.50;99.20;;;;;;5016779;28;20040;-66
2021/06/30 05:31:04;;;;;;;10.75;6.93;;;18.60;99.10;;;;;;5033818;28;20109;-66
2021/06/30 05:33:29;;;;;;;7.82;7.03;;;18.60;99.10;;;;;;5030663;28;20095;-64
2021/06/30 05:35:55;;;;;;;9.88;6.93;;;18.60;99.20;;;;;;5028659;28;20037;-63
2021/06/30 05:38:24;;;;;;;9.40;7.25;;;18.60;99.10;;;;;;5029465;28;20430;-63
2021/06/30 05:40:51;;;;;;;10.27;6.85;;;18.60;99.10;;;;;;5033197;28;20425;-63
2021/06/30 05:43:16;;;;;;;8.95;7.00;;;18.70;98.70;;;;;;5032903;28;20029;-63
2021/06/30 05:45:43;;;;;;;13.57;6.82;;;18.60;98.50;;;;;;5032824;28;20484;-65
2021/06/30 05:48:08;;;;;;;11.95;7.50;;;18.60;98.70;;;;;;5032928;28;20029;-66
2021/06/30 05:50:34;;;;;;;10.95;7.18;;;18.40;99.10;;;;;;5032434;28;20121;-66
2021/06/30 05:53:01;;;;;;;12.52;7.55;;;18.50;99.20;;;;;;5015211;28;20041;-68
2021/06/30 05:55:26;;;;;;;11.32;7.00;;;18.30;99.50;;;;;;5032566;28;20063;-67
2021/06/30 05:57:52;;;;;;;13.00;7.30;;;18.30;99.60;;;;;;5032427;28;20120;-67
2021/06/30 06:00:19;;;;;;;8.05;7.20;;;18.40;99.30;;;;;;5032708;28;20037;-68
2021/06/30 06:02:46;;;;;;;7.50;6.57;;;18.20;99.90;;;;;;5033520;28;20033;-67
2021/06/30 06:05:11;;;;;;;11.15;6.60;;;18.20;99.90;;;;;;5015229;28;20032;-67
2021/06/30 06:07:37;;;;;;;6.50;5.90;;;18.20;99.90;;;;;;5035335;28;20033;-66
2021/06/30 06:10:08;;;;;;;8.07;6.03;;;18.20;99.90;;;;;;5053060;28;20061;-67
2021/06/30 06:12:34;;;;;;;7.55;6.35;;;18.20;99.90;;;;;;5052642;28;20029;-66
2021/06/30 06:14:59;;;;;;;12.93;7.07;;;18.30;99.80;;;;;;5040249;28;20079;-66
2021/06/30 06:17:25;;;;;;;11.68;7.32;;;18.20;99.90;;;;;;5031585;28;20055;-66
2021/06/30 06:19:51;;;;;;;8.90;7.00;;;18.10;99.90;;;;;;5031758;28;20028;-67
2021/06/30 06:22:17;;;;;;;8.98;7.18;;;18.10;99.90;;;;;;5031891;28;20091;-67
2021/06/30 06:24:43;;;;;;;8.65;6.60;;;18.10;99.90;;;;;;5031787;28;20060;-67
2021/06/30 06:27:09;;;;;;;14.02;6.65;;;18.10;99.90;;;;;;5031798;28;20100;-67
2021/06/30 06:29:35;;;;;;;9.90;6.40;;;18.10;99.90;;;;;;5032030;28;20040;-66
2021/06/30 06:32:01;;;;;;;8.75;6.30;;;18.10;99.90;;;;;;5013962;28;20037;-67
2021/06/30 06:34:27;;;;;;;14.00;6.68;;;18.00;99.90;;;;;;5027789;28;20103;-68
2021/06/30 06:36:53;;;;;;;8.95;6.18;;;18.10;99.90;;;;;;5010393;28;20029;-67
2021/06/30 06:39:20;;;;;;;11.20;6.80;;;18.20;99.90;;;;;;5033744;28;20026;-65
2021/06/30 06:41:46;;;;;;;14.73;8.23;;;18.20;99.90;;;;;;5034448;28;20033;-69
2021/06/30 06:44:12;;;;;;;10.88;7.45;;;18.30;99.90;;;;;;5032307;28;20042;-66
2021/06/30 06:46:39;;;;;;;11.38;7.40;;;18.40;99.90;;;;;;5036834;28;20033;-65
2021/06/30 06:49:08;;;;;;;8.73;6.53;;;18.50;99.90;;;;;;5037146;28;20440;-64
2021/06/30 06:51:36;;;;;;;9.13;7.03;;;18.40;99.90;;;;;;5036438;28;20436;-67
2021/06/30 06:54:02;;;;;;;11.43;7.32;;;18.50;99.90;;;;;;5019277;28;20144;-64
2021/06/30 06:56:28;;;;;;;10.85;7.53;;;18.50;99.90;;;;;;5035964;28;20037;-65
2021/06/30 06:58:54;;;;;;;11.57;6.93;;;18.50;99.90;;;;;;5036324;28;20041;-63
2021/06/30 07:01:21;;;;;;;8.32;6.63;;;18.70;99.90;;;;;;5035579;28;20432;-64
2021/06/30 07:03:47;;;;;;;8.70;7.05;;;18.70;99.50;;;;;;5036475;28;20121;-64
2021/06/30 07:06:13;;;;;;;9.65;7.13;;;18.60;99.90;;;;;;5035327;28;20049;-62
2021/06/30 07:08:38;;;;;;;9.80;7.82;;;18.70;99.90;;;;;;5018854;28;20029;-64
2021/06/30 07:11:04;;;;;;;7.85;7.05;;;18.60;99.90;;;;;;5036224;28;20036;-64
2021/06/30 07:13:30;;;;;;;10.00;7.38;;;18.60;99.90;;;;;;5035748;28;20029;-64
2021/06/30 07:15:56;;;;;;;10.30;8.32;;;18.50;99.90;;;;;;5035874;28;20033;-64
2021/06/30 07:18:22;;;;;;;12.55;8.38;;;18.40;99.90;;;;;;5035834;28;20045;-64
2021/06/30 07:20:47;;;;;;;10.68;9.60;;;18.30;99.90;;;;;;5035495;28;20033;-62
2021/06/30 07:23:14;;;;;;;10.10;8.98;;;18.20;99.90;;;;;;5017777;28;20067;-61
2021/06/30 07:25:40;;;;;;;9.63;8.63;;;18.30;99.90;;;;;;5036062;28;20026;-60
2021/06/30 07:28:07;;;;;;;9.50;8.50;;;18.30;99.90;;;;;;5035586;28;20049;-61
2021/06/30 07:30:33;;;;;;;8.88;7.85;;;18.20;99.90;;;;;;5035038;28;20060;-64
2021/06/30 07:32:59;;;;;;;10.27;8.43;;;18.20;99.90;;;;;;5035273;28;20057;-65
2021/06/30 07:35:25;;;;;;;11.73;7.70;;;18.30;99.90;;;;;;5035730;28;20699;-65
2021/06/30 07:37:51;;;;;;;13.23;8.70;;;18.20;99.90;;;;;;5035286;28;20032;-65
2021/06/30 07:40:17;;;;;;;9.63;8.73;;;18.10;99.90;;;;;;5035627;28;20076;-65
2021/06/30 07:42:43;;;;;;;10.05;8.60;;;18.10;99.90;;;;;;5036379;28;20155;-65
2021/06/30 07:45:09;;;;;;;9.98;8.40;;;18.30;99.90;;;;;;5035045;28;20481;-64
2021/06/30 07:47:35;;;;;;;8.80;7.90;;;18.20;99.90;;;;;;5035297;28;20029;-64
2021/06/30 07:50:01;;;;;;;10.52;8.32;;;18.30;99.90;;;;;;5034959;28;20160;-63
2021/06/30 07:52:28;;;;;;;9.73;7.95;;;18.40;99.90;;;;;;5035291;28;20037;-64
2021/06/30 07:54:56;;;;;;;9.52;8.23;;;18.40;99.90;;;;;;5035126;28;20044;-63
2021/06/30 07:57:22;;;;;;;9.65;7.82;;;18.40;99.90;;;;;;5016001;28;20433;-63
2021/06/30 07:59:47;;;;;;;12.65;8.90;;;18.30;99.90;;;;;;5034394;28;20164;-63
2021/06/30 08:02:13;;;;;;;11.77;8.82;;;18.40;99.90;;;;;;5000654;28;20037;-63
2021/06/30 08:04:38;;;;;;;10.70;8.35;;;18.50;99.90;;;;;;5034385;28;20124;-61
2021/06/30 08:07:04;;;;;;;10.30;7.85;;;18.60;99.90;;;;;;5034067;28;20057;-62
2021/06/30 08:09:31;;;;;;;7.85;6.97;;;18.80;99.50;;;;;;5034647;28;20033;-62
2021/06/30 08:11:59;;;;;;;8.75;7.32;;;18.80;99.30;;;;;;5034822;28;20036;-62
2021/06/30 08:14:24;;;;;;;12.48;7.88;;;18.80;99.60;;;;;;5034291;28;20473;-63
2021/06/30 08:16:50;;;;;;;9.65;7.50;;;18.80;99.50;;;;;;5033803;28;20030;-62
2021/06/30 08:19:16;;;;;;;9.70;7.65;;;18.80;99.40;;;;;;5034397;28;20660;-61
2021/06/30 08:21:41;;;;;;;7.30;6.65;;;18.90;99.40;;;;;;5016159;28;20103;-62
2021/06/30 08:24:07;;;;;;;10.18;7.65;;;18.90;99.20;;;;;;5034032;28;20025;-62
2021/06/30 08:26:32;;;;;;;12.32;7.85;;;18.80;99.30;;;;;;5034059;28;20057;-62
2021/06/30 08:28:58;;;;;;;7.95;7.13;;;18.70;99.80;;;;;;5032127;28;20519;-62
2021/06/30 08:31:24;;;;;;;12.00;7.28;;;18.70;99.30;;;;;;5017185;28;20034;-62
2021/06/30 08:33:50;;;;;;;10.40;7.65;;;18.80;99.30;;;;;;5010507;28;20496;-62
2021/06/30 08:36:15;;;;;;;9.18;6.88;;;18.80;99.30;;;;;;5019035;28;20064;-61
2021/06/30 08:38:41;;;;;;;9.88;7.45;;;18.70;99.60;;;;;;5016444;28;20464;-62
2021/06/30 08:41:06;;;;;;;9.65;7.38;;;18.50;99.70;;;;;;5030415;28;20037;-62
2021/06/30 08:43:32;;;;;;;10.88;7.60;;;18.60;99.60;;;;;;5032995;28;20045;-62
2021/06/30 08:46:00;;;;;;;10.07;7.60;;;18.60;99.60;;;;;;5033376;28;20087;-59
2021/06/30 08:48:29;;;;;;;9.50;7.45;;;18.70;99.70;;;;;;5032852;28;20029;-60
2021/06/30 08:50:57;;;;;;;8.18;7.43;;;18.80;99.20;;;;;;5033315;28;20145;-61
2021/06/30 08:53:23;;;;;;;8.52;7.05;;;18.80;98.90;;;;;;5033032;28;20028;-61
2021/06/30 08:55:49;;;;;;;10.95;7.57;;;18.90;98.80;;;;;;5032525;28;20026;-59
2021/06/30 08:58:15;;;;;;;8.98;6.57;;;18.80;98.30;;;;;;5033236;28;20026;-58
2021/06/30 09:00:42;;;;;;;9.15;6.97;;;18.80;98.60;;;;;;5034306;28;20567;-58
2021/06/30 09:03:15;;;;;;;11.63;6.82;;;18.70;99.00;;;;;;5033622;28;20128;-58
2021/06/30 09:08:36;;;;;;;7.20;6.53;;;18.60;98.60;;;;;;5033834;28;20030;-58
2021/06/30 09:11:10;;;;;;;8.60;5.75;;;18.70;98.30;;;;;;5033867;28;20057;-59
2021/06/30 09:13:36;;;;;;;8.80;6.53;;;18.60;98.20;;;;;;5034034;28;20076;-59
2021/06/30 09:16:03;;;;;;;7.85;6.90;;;18.60;98.50;;;;;;5034039;28;20495;-58
2021/06/30 09:18:34;;;;;;;8.02;6.50;;;18.60;98.60;;;;;;5033336;28;20036;-57
2021/06/30 09:21:21;;;;;;;7.03;5.70;;;18.50;98.80;;;;;;5033858;28;20080;-58
2021/06/30 09:24:04;;;;;;;7.35;6.40;;;18.60;98.30;;;;;;5033959;28;20029;-60
2021/06/30 09:26:33;;;;;;;7.00;6.30;;;18.50;98.50;;;;;;5019792;28;20493;-57
2021/06/30 09:29:07;;;;;;;7.45;6.05;;;18.40;98.40;;;;;;4995985;28;20052;-58
2021/06/30 09:31:33;;;;;;;7.65;6.13;;;18.40;98.50;;;;;;5013175;28;20037;-58
2021/06/30 09:33:59;;;;;;;7.35;5.60;;;18.40;98.70;;;;;;5016342;28;20079;-56
2021/06/30 09:36:27;;;;;;;6.93;5.88;;;18.50;98.60;;;;;;5022573;28;20113;-58
2021/06/30 09:38:53;;;;;;;6.57;5.90;;;18.40;98.60;;;;;;5034203;28;20022;-56
2021/06/30 09:41:30;;;;;;;7.53;6.03;;;18.30;98.90;;;;;;5034376;28;20117;-55
2021/06/30 09:44:07;;;;;;;10.80;6.25;;;18.40;98.80;;;;;;5032765;28;20037;-54
2021/06/30 09:46:34;;;;;;;9.07;5.78;;;18.20;99.00;;;;;;5026698;28;20109;-59
2021/06/30 09:49:02;;;;;;;8.18;6.00;;;18.30;98.90;;;;;;5023681;28;20424;-57
2021/06/30 09:51:28;;;;;;;6.70;5.93;;;18.20;98.90;;;;;;5008477;28;20045;-53
2021/06/30 09:54:04;;;;;;;8.45;5.72;;;18.20;98.80;;;;;;5030739;28;20037;-57
2021/06/30 09:56:33;;;;;;;6.22;5.30;;;18.30;98.60;;;;;;5033376;28;20033;-57
2021/06/30 09:59:16;;;;;;;10.88;5.57;;;18.20;98.40;;;;;;5024005;28;20052;-58
2021/06/30 10:01:50;;;;;;;7.47;4.88;;;18.40;98.60;;;;;;5014927;28;20429;-53
2021/06/30 10:04:31;;;;;;;10.53;5.50;;;18.20;97.90;;;;;;5016495;28;20030;-58
2021/06/30 10:06:59;;;;;;;9.40;5.93;;;18.30;98.20;;;;;;5016697;28;20400;-57
2021/06/30 10:09:25;;;;;;;9.48;5.38;;;18.30;98.40;;;;;;5009225;28;20049;-58
2021/06/30 10:12:17;;;;;;;6.80;5.40;;;18.40;98.30;;;;;;5031624;28;20037;-58
2021/06/30 10:14:45;;;;;;;7.00;5.72;;;18.60;97.70;;;;;;5029422;28;20099;-58
2021/06/30 10:17:13;;;;;;;6.47;5.88;;;18.40;97.90;;;;;;5029067;28;20405;-56
2021/06/30 10:19:40;;;;;;;9.77;6.30;;;18.30;98.40;;;;;;5028408;28;20034;-58
2021/06/30 10:22:08;;;;;;;6.57;5.55;;;18.50;98.00;;;;;;5028746;28;20041;-56
2021/06/30 10:24:34;;;;;;;7.40;6.15;;;18.60;97.80;;;;;;5031983;28;20060;-56
2021/06/30 10:27:00;;;;;;;6.72;5.88;;;18.50;97.80;;;;;;5033330;28;20041;-53
2021/06/30 10:29:31;;;;;;;8.30;5.50;;;18.50;97.80;;;;;;5032101;28;20104;-58
2021/06/30 10:32:09;;;;;;;6.65;5.30;;;18.50;97.80;;;;;;5028877;28;20065;-58
2021/06/30 10:34:40;;;;;;;9.98;5.00;;;18.60;97.80;;;;;;5012080;28;20056;-55
2021/06/30 10:37:26;;;;;;;7.10;5.00;;;18.60;97.50;;;;;;5018757;28;20524;-56
2021/06/30 10:39:56;;;;;;;5.93;5.32;;;18.60;97.20;;;;;;5028552;28;20037;-55
2021/06/30 10:42:38;;;;;;;6.03;5.43;;;18.50;97.10;;;;;;5029255;28;20049;-53
2021/06/30 10:45:17;;;;;;;7.53;5.13;;;18.40;97.30;;;;;;5006291;28;20050;-53
2021/06/30 10:47:52;;;;;;;10.45;4.97;;;18.60;97.00;;;;;;5028497;28;20112;-55
2021/06/30 10:50:18;;;;;;;8.55;4.40;;;18.70;96.70;;;;;;5030559;28;20385;-59
2021/06/30 10:52:48;;;;;;;5.00;4.00;;;18.80;96.40;;;;;;5028903;28;20033;-54
2021/06/30 10:55:40;;;;;;;8.75;5.05;;;18.80;96.50;;;;;;5027717;28;20045;-54
2021/06/30 10:58:14;;;;;;;6.18;4.68;;;18.90;96.40;;;;;;5031262;28;20089;-56
2021/06/30 11:00:58;;;;;;;6.60;4.88;;;18.90;96.70;;;;;;5028656;28;20013;-59
2021/06/30 11:03:34;;;;;;;6.90;4.40;;;18.90;96.80;;;;;;5031842;28;20021;-52
2021/06/30 11:06:18;;;;;;;6.28;4.20;;;18.90;96.40;;;;;;5026963;28;20060;-56
2021/06/30 11:08:53;;;;;;;6.03;4.38;;;19.00;96.50;;;;;;5030578;28;20033;-57
2021/06/30 11:11:33;;;;;;;7.43;4.55;;;19.00;96.30;;;;;;5009562;28;20059;-56
2021/06/30 11:14:09;;;;;;;5.20;4.20;;;19.20;95.60;;;;;;5026240;28;20033;-57
2021/06/30 11:16:44;;;;;;;7.40;4.07;;;19.30;95.40;;;;;;5028562;28;20033;-57
2021/06/30 11:19:19;;;;;;;4.78;3.85;;;19.50;94.90;;;;;;5030454;28;20489;-57
2021/06/30 11:21:44;;;;;;;;;;;19.70;94.30;;;;;;5028792;28;20454;-57
2021/06/30 11:27:25;;;;;;;5.13;3.47;;;20.00;93.50;;;;;;5032210;28;20113;-53
2021/06/30 11:29:58;;;;;;;5.50;3.60;;;20.20;93.60;;;;;;5027454;28;20056;-58
2021/06/30 11:32:36;;;;;;;4.43;3.60;;;20.30;92.90;;;;;;5027828;28;20029;-52
2021/06/30 11:35:13;;;;;;;4.47;3.10;;;20.20;92.90;;;;;;5031130;28;20039;-57
2021/06/30 11:37:41;;;;;;;3.28;2.80;;;20.20;92.80;;;;;;5026308;28;20581;-57
2021/06/30 11:40:17;;;;;;;5.75;3.13;;;20.30;92.60;;;;;;5032068;28;20519;-57
2021/06/30 11:42:48;;;;;;;3.90;3.28;;;20.20;92.20;;;;;;5034111;28;20112;-59
2021/06/30 11:45:24;;;;;;;4.28;3.20;;;20.20;91.80;;;;;;5034816;28;20076;-58
2021/06/30 11:47:53;;;;;;;4.90;3.10;;;20.20;92.10;;;;;;5034299;28;20370;-55
2021/06/30 11:50:22;;;;;;;3.75;3.40;;;20.00;92.00;;;;;;5031710;28;20033;-56
2021/06/30 11:52:49;;;;;;;4.55;3.20;;;20.00;91.20;;;;;;5031833;28;20148;-58
2021/06/30 11:55:16;;;;;;;3.60;3.00;;;19.80;91.60;;;;;;5033527;28;20516;-55
2021/06/30 11:57:57;;;;;;;3.42;2.90;;;19.90;91.30;;;;;;5034396;28;20029;-57
2021/06/30 12:00:25;;;;;;;4.47;3.42;;;20.00;91.60;;;;;;4998465;28;20032;-54
2021/06/30 12:03:00;;;;;;;5.13;3.15;;;20.10;91.40;;;;;;5016861;28;20587;-54
2021/06/30 12:05:28;;;;;;;6.30;3.28;;;20.30;91.30;;;;;;5033433;28;20034;-58
2021/06/30 12:07:56;;;;;;;3.92;2.95;;;20.30;90.80;;;;;;5034063;28;20053;-57
2021/06/30 12:10:29;;;;;;;5.80;3.38;;;20.40;90.40;;;;;;5031657;28;20049;-55
2021/06/30 12:12:55;;;;;;;4.70;3.17;;;20.30;90.50;;;;;;5030876;28;20030;-53
2021/06/30 12:15:20;;;;;;;5.88;3.25;;;20.30;90.50;;;;;;5033255;28;20061;-55
2021/06/30 12:17:55;;;;;;;3.88;3.53;;;20.20;90.40;;;;;;5028976;28;20060;-58
2021/06/30 12:20:24;;;;;;;4.35;3.00;;;20.20;90.50;;;;;;5033731;28;20032;-57
2021/06/30 12:22:50;;;;;;;6.20;2.95;;;20.20;90.30;;;;;;5034578;28;20428;-57
2021/06/30 12:25:19;;;;;;;4.15;3.25;;;20.30;90.70;;;;;;5013888;28;20044;-54
2021/06/30 12:28:05;;;;;;;3.85;3.05;;;20.30;90.80;;;;;;5032808;28;20479;-60
2021/06/30 12:30:36;;;;;;;5.10;3.65;;;20.60;90.30;;;;;;5030146;28;20026;-55
2021/06/30 12:33:03;;;;;;;4.75;3.30;;;20.50;90.40;;;;;;5026133;28;20071;-58
2021/06/30 12:35:34;;;;;;;4.50;3.58;;;20.20;91.00;;;;;;5033988;28;20041;-57
2021/06/30 12:38:31;;;;;;;4.43;3.40;;;20.40;90.80;;;;;;5033179;28;20091;-55
2021/06/30 12:41:05;;;;;;;3.70;3.22;;;20.60;90.60;;;;;;5033506;28;20550;-56
2021/06/30 12:43:31;;;;;;;4.75;3.40;;;20.70;90.50;;;;;;5015151;28;20141;-59
2021/06/30 12:45:56;;;;;;;3.90;3.38;;;21.00;90.30;;;;;;5033887;28;20037;-55
2021/06/30 12:48:27;;;;;;;5.35;3.22;;;21.00;89.30;;;;;;5033433;28;20071;-55
2021/06/30 12:50:56;;;;;;;5.57;3.20;;;21.20;89.50;;;;;;5033452;28;20068;-56
2021/06/30 12:53:24;;;;;;;4.57;3.55;;;21.40;88.70;;;;;;5032936;28;20034;-56
2021/06/30 12:55:53;;;;;;;3.50;2.85;;;21.70;89.10;;;;;;5033116;28;20025;-54